Du har inga inställningar för hoppväder.nu

Hoppväder.nu

Senast uppdaterat 13:15

UTC-tid

2021-12-07 kl. 12:15


Sol och måne

Solen går upp 9:23 och går ner 13:32 (beräknade cirkatider)
Nästa fullmåne blir om 12 dagar (2021-12-19)

METAR

ESNS (Skellefteå)
(25 minuter sedan)
ESNS 071150Z 33004KT 300V360 4000 -SN VV028 M10/M11 Q1019=



ESNU (Umeå)
(25 minuter sedan)
ESNU 071150Z 34002KT 4000 -SN SCT006 OVC009 M09/M09 Q1018=



ESPA (Luleå)
(25 minuter sedan)
ESPA 071150Z 03005KT 9999 -SG FEW006 SCT010 BKN015 M12/M14 Q1020=









TAF

ESNS (Skellefteå)
(45 minuter sedan)
ESNS 071130Z 0712/0719 32004KT 9000 SCT003 BKN025 TEMPO 0712/0719 1200 -SN BKN003=



ESNU (Umeå)
(45 minuter sedan)
ESNU 071130Z 0712/0721 33003KT 6000 -SN SCT004 OVC015 TEMPO 0712/0721 2000 OVC004=



ESPA (Luleå)
(45 minuter sedan)
ESPA 071130Z 0712/0721 03005KT 9999 -SN BKN017 PROB40 0712/0721 3000 SN BKN009 RMK MIL=





Kodnycklar till TAF och METAR






LHP

(Skellefteå är område se44b i Delområde 1)







Spotting

Hur fungerar spotthjälpen och Vindkartan?

Markvind är ca 0 m/s.



Vindkartan

Senast uppdaterad 13:15




All data kommer från LFV.se